Rankings de siempre
Mejores tiempos personales válidos de atleta a través de todos los eventos y temporadas. Cada atleta aparece una vez por división.
Busca por nombre y abre la página donde está clasificado este récord de división.
32,082 atletas clasificados
Los finishers de HYROX ELITE 15 se rastrean por separado — ver la clasificación Elite.
| Pos. | Pos. AG | Atleta | Nacionalidad | Categoría de edad | TiempoMejor tiempo | Diferencia |
|---|---|---|---|---|---|---|
| 22851 | #7249 | Nathan BarnesGBR · M 30-34 · AG #7249 | GBR | M 30-34 | 1:34:00 | +40:33 |
| 22852 | #566 | Steel SHAWUSA · M 50-54 · AG #566 | USA | M 50-54 | 1:34:00 | +40:33 |
| 22853 | #5488 | Alex CheungHKG · M 25-29 · AG #5488 | HKG | M 25-29 | 1:34:00 | +40:33 |
| 22854 | #7250 | Luis Alfredo Hernández OrtizMEX · M 30-34 · AG #7250 | MEX | M 30-34 | 1:34:00 | +40:33 |
| 22855 | #5185 | Caleb DeWittUSA · M 35-39 · AG #5185 | USA | M 35-39 | 1:34:00 | +40:33 |
| 22856 | #2704 | Nicolas Sainte-CatherineFRA · M 40-44 · AG #2704 | FRA | M 40-44 | 1:34:00 | +40:33 |
| 22857 | #7251 | Jack MorleyGBR · M 30-34 · AG #7251 | GBR | M 30-34 | 1:34:01 | +40:34 |
| 22858 | #5186 | Diego Jair Viamontes CoteraMEX · M 35-39 · AG #5186 | MEX | M 35-39 | 1:34:01 | +40:34 |
| 22859 | #1227 | James JenkinsGBR · M 45-49 · AG #1227 | GBR | M 45-49 | 1:34:01 | +40:34 |
| 22860 | #5188 | Henrik NordbladSWE · M 35-39 · AG #5188 | SWE | M 35-39 | 1:34:01 | +40:34 |
| 22861 | #5187 | Freddie SankeyGBR · M 35-39 · AG #5187 | GBR | M 35-39 | 1:34:01 | +40:34 |
| 22862 | #5189 | Lawrence RothwellGBR · M 35-39 · AG #5189 | GBR | M 35-39 | 1:34:01 | +40:34 |
| 22863 | #2705 | Timo HaeberleGER · M 40-44 · AG #2705 | GER | M 40-44 | 1:34:01 | +40:34 |
| 22864 | #5489 | Aldar Fernando Maro MartínezMEX · M 25-29 · AG #5489 | MEX | M 25-29 | 1:34:01 | +40:34 |
| 22865 | #2189 | Noel DiazMEX · M 16-24 · AG #2189 | MEX | M 16-24 | 1:34:02 | +40:35 |
| 22866 | #7253 | Camille RENAUXFRA · M 30-34 · AG #7253 | FRA | M 30-34 | 1:34:02 | +40:35 |
| 22867 | #567 | Kevin FlynnIRL · M 50-54 · AG #567 | IRL | M 50-54 | 1:34:02 | +40:35 |
| 22868 | #7256 | 勤 于HYR · M 30-34 · AG #7256 | HYR | M 30-34 | 1:34:02 | +40:35 |
| 22869 | #5190 | Shaun VerrektBEL · M 35-39 · AG #5190 | BEL | M 35-39 | 1:34:02 | +40:35 |
| 22870 | #7255 | Jason Patch WilliamsGBR · M 30-34 · AG #7255 | GBR | M 30-34 | 1:34:02 | +40:35 |
| 22871 | #5490 | Damian TomasikPOL · M 25-29 · AG #5490 | POL | M 25-29 | 1:34:02 | +40:35 |
| 22872 | #5491 | Mathis DescheemakerBEL · M 25-29 · AG #5491 | BEL | M 25-29 | 1:34:02 | +40:35 |
| 22873 | #7259 | 재호 신KOR · M 30-34 · AG #7259 | KOR | M 30-34 | 1:34:03 | +40:36 |
| 22874 | #1228 | Yves BalmerSUI · M 45-49 · AG #1228 | SUI | M 45-49 | 1:34:03 | +40:36 |
| 22875 | #5193 | 乐秋 张CHN · M 35-39 · AG #5193 | CHN | M 35-39 | 1:34:03 | +40:36 |
Página 915 de 1,284